createdAt,value
2023-05-08T00:00:13.951Z,97280.97
2023-05-08T00:02:41.078Z,97279.25
2023-05-08T00:05:07.762Z,97280.34
2023-05-08T00:07:34.324Z,97270.41
2023-05-08T00:10:00.759Z,97271.94
2023-05-08T00:12:27.199Z,97287.53
2023-05-08T00:14:53.610Z,97284.63
2023-05-08T00:17:20.057Z,97277.16
2023-05-08T00:19:46.498Z,97277.31
2023-05-08T00:22:12.993Z,97298.56
2023-05-08T00:24:39.516Z,97270.00
2023-05-08T00:27:06.249Z,97286.31
2023-05-08T00:29:32.849Z,97273.09
2023-05-08T00:31:59.389Z,97292.59
2023-05-08T00:34:25.886Z,97289.31
2023-05-08T00:36:52.303Z,97278.81
2023-05-08T00:39:18.768Z,97281.69
2023-05-08T00:41:45.192Z,97297.91
2023-05-08T00:44:11.698Z,97304.75
2023-05-08T00:46:38.172Z,97311.94
2023-05-08T00:49:04.870Z,97299.28
2023-05-08T00:51:31.331Z,97280.09
2023-05-08T00:53:57.782Z,97306.53
2023-05-08T00:56:24.170Z,97326.03
2023-05-08T00:58:50.597Z,97291.91
2023-05-08T01:01:17.010Z,97323.81
2023-05-08T01:03:43.755Z,97318.06
2023-05-08T01:06:10.563Z,97301.34
2023-05-08T01:08:37.278Z,97323.75
2023-05-08T01:11:06.849Z,97340.03
2023-05-08T01:13:52.184Z,97329.00
2023-05-08T01:16:23.586Z,97320.38
2023-05-08T01:18:59.578Z,97311.91
2023-05-08T01:21:43.061Z,97341.69
2023-05-08T01:24:28.333Z,97313.16
2023-05-08T01:26:59.529Z,97354.16
2023-05-08T01:29:29.063Z,97333.75
2023-05-08T01:32:13.609Z,97348.13
2023-05-08T01:34:58.622Z,97326.66
2023-05-08T01:37:27.785Z,97340.94
2023-05-08T01:39:57.516Z,97356.69
2023-05-08T01:42:39.350Z,97351.50
2023-05-08T01:45:07.966Z,97345.72
2023-05-08T01:47:36.153Z,97350.59
2023-05-08T01:50:02.738Z,97348.69
2023-05-08T01:52:33.355Z,97367.13
2023-05-08T01:55:02.011Z,97367.09
2023-05-08T01:57:28.653Z,97358.28
2023-05-08T01:59:56.082Z,97380.09
2023-05-08T02:02:22.709Z,97379.06
2023-05-08T02:04:49.472Z,97334.59
2023-05-08T02:07:16.201Z,97381.53
2023-05-08T02:09:44.452Z,97379.22
2023-05-08T02:12:11.532Z,97361.72
2023-05-08T02:14:38.128Z,97364.97
2023-05-08T02:17:04.672Z,97352.88
2023-05-08T02:19:31.178Z,97357.09
2023-05-08T02:21:57.897Z,97368.25
2023-05-08T02:24:24.332Z,97367.59
2023-05-08T02:26:50.951Z,97373.63
2023-05-08T02:29:17.454Z,97374.16
2023-05-08T02:31:44.181Z,97375.53
2023-05-08T02:34:10.740Z,97366.69
2023-05-08T02:36:37.389Z,97393.16
2023-05-08T02:39:03.789Z,97388.66
2023-05-08T02:41:30.760Z,97363.53
2023-05-08T02:43:57.229Z,97369.94
2023-05-08T02:46:34.683Z,97391.91
2023-05-08T02:49:21.366Z,97387.03
2023-05-08T02:51:55.120Z,97392.41
2023-05-08T02:54:40.269Z,97405.78
2023-05-08T02:57:09.254Z,97373.28
2023-05-08T02:59:46.090Z,97389.19
2023-05-08T03:02:14.278Z,97366.38
2023-05-08T03:04:42.090Z,97379.97
2023-05-08T03:07:08.657Z,97393.09
2023-05-08T03:09:55.701Z,97404.94
2023-05-08T03:12:22.385Z,97393.56
2023-05-08T03:15:04.648Z,97404.06
2023-05-08T03:17:31.392Z,97387.28
2023-05-08T03:19:58.172Z,97387.47
2023-05-08T03:22:24.615Z,97414.72
2023-05-08T03:24:50.973Z,97392.25
2023-05-08T03:27:17.779Z,97400.66
2023-05-08T03:29:44.247Z,97392.13
2023-05-08T03:32:10.982Z,97428.22
2023-05-08T03:34:37.588Z,97407.31
2023-05-08T03:37:04.030Z,97402.44
2023-05-08T03:39:30.500Z,97405.75
2023-05-08T03:41:57.250Z,97415.97
2023-05-08T03:44:23.962Z,97395.47
2023-05-08T03:46:50.781Z,97403.22
2023-05-08T03:49:17.404Z,97408.38
2023-05-08T03:51:43.808Z,97415.44
2023-05-08T03:54:10.195Z,97409.00
2023-05-08T03:56:36.662Z,97418.13
2023-05-08T03:59:09.278Z,97417.09
2023-05-08T04:01:39.045Z,97420.09
2023-05-08T04:04:12.356Z,97400.50
2023-05-08T04:06:57.827Z,97423.03
2023-05-08T04:09:27.276Z,97428.41
2023-05-08T04:12:00.745Z,97428.97
2023-05-08T04:14:27.744Z,97412.75
2023-05-08T04:16:56.214Z,97430.53
2023-05-08T04:19:23.730Z,97431.28
2023-05-08T04:21:50.303Z,97428.38
2023-05-08T04:24:16.828Z,97433.81
2023-05-08T04:26:43.329Z,97433.56
2023-05-08T04:29:09.822Z,97441.94
2023-05-08T04:31:36.266Z,97435.53
2023-05-08T04:34:02.873Z,97453.84
2023-05-08T04:36:30.716Z,97447.31
2023-05-08T04:38:58.658Z,97449.41
2023-05-08T04:41:25.713Z,97443.22
2023-05-08T04:43:52.283Z,97435.88
2023-05-08T04:46:18.791Z,97436.13
2023-05-08T04:48:45.470Z,97450.47
2023-05-08T04:51:11.988Z,97425.28
2023-05-08T04:53:38.412Z,97472.09
2023-05-08T04:56:05.170Z,97451.50
2023-05-08T04:58:31.741Z,97471.34
2023-05-08T05:01:01.689Z,97447.31
2023-05-08T05:03:28.121Z,97461.81
2023-05-08T05:06:00.729Z,97460.44
2023-05-08T05:08:27.466Z,97423.25
2023-05-08T05:10:53.915Z,97447.91
2023-05-08T05:13:20.495Z,97461.03
2023-05-08T05:15:47.273Z,97476.28
2023-05-08T05:18:13.806Z,97494.88
2023-05-08T05:20:40.294Z,97490.03
2023-05-08T05:23:06.861Z,97466.59
2023-05-08T05:25:33.285Z,97475.28
2023-05-08T05:27:59.703Z,97481.09
2023-05-08T05:30:26.661Z,97480.19
2023-05-08T05:32:53.217Z,97493.28
2023-05-08T05:35:19.922Z,97484.38
2023-05-08T05:37:46.776Z,97484.66
2023-05-08T05:40:13.248Z,97489.72
2023-05-08T05:42:39.694Z,97476.25
2023-05-08T05:45:06.417Z,97494.88
2023-05-08T05:47:32.984Z,97507.09
2023-05-08T05:49:59.492Z,97505.16
2023-05-08T05:52:25.958Z,97500.72
2023-05-08T05:54:52.344Z,97500.34
2023-05-08T05:57:19.519Z,97502.03
2023-05-08T05:59:46.066Z,97497.06
2023-05-08T06:02:12.569Z,97504.41
2023-05-08T06:04:39.021Z,97511.72
2023-05-08T06:07:05.554Z,97513.84
2023-05-08T06:09:31.939Z,97493.31
2023-05-08T06:11:58.323Z,97512.41
2023-05-08T06:14:24.970Z,97488.13
2023-05-08T06:16:51.361Z,97492.72
2023-05-08T06:19:17.771Z,97508.25
2023-05-08T06:21:44.355Z,97509.69
2023-05-08T06:24:10.825Z,97460.47
2023-05-08T06:26:37.218Z,97518.16
2023-05-08T06:29:04.048Z,97490.81
2023-05-08T06:31:30.604Z,97530.25
2023-05-08T06:33:57.289Z,97509.19
2023-05-08T06:36:24.114Z,97487.50
2023-05-08T06:38:50.594Z,97466.34
2023-05-08T06:41:17.057Z,97484.06
2023-05-08T06:43:43.578Z,97488.00
2023-05-08T06:46:09.976Z,97485.72
2023-05-08T06:48:36.483Z,97520.16
2023-05-08T06:51:03.005Z,97485.09
2023-05-08T06:53:29.511Z,97495.81
2023-05-08T06:55:56.033Z,97482.66
2023-05-08T06:58:22.528Z,97486.03
2023-05-08T07:00:48.924Z,97507.00
2023-05-08T07:03:15.559Z,97519.94
2023-05-08T07:05:42.207Z,97505.00
2023-05-08T07:08:08.567Z,97494.97
2023-05-08T07:10:35.021Z,97508.09
2023-05-08T07:13:01.666Z,97507.19
2023-05-08T07:15:28.392Z,97512.22
2023-05-08T07:17:55.112Z,97528.59
2023-05-08T07:20:21.798Z,97511.19
2023-05-08T07:22:48.504Z,97499.38
2023-05-08T07:25:15.078Z,97531.56
2023-05-08T07:27:41.868Z,97520.34
2023-05-08T07:30:08.370Z,97537.09
2023-05-08T07:32:34.772Z,97541.34
2023-05-08T07:35:02.291Z,97547.59
2023-05-08T07:37:28.661Z,97507.09
2023-05-08T07:39:55.169Z,97514.91
2023-05-08T07:42:21.693Z,97506.16
2023-05-08T07:44:54.257Z,97523.00
2023-05-08T07:47:21.623Z,97498.94
2023-05-08T07:49:48.087Z,97517.03
2023-05-08T07:52:14.523Z,97527.72
2023-05-08T07:54:41.137Z,97550.03
2023-05-08T07:57:07.649Z,97559.09
2023-05-08T07:59:34.071Z,97515.03
2023-05-08T08:02:00.563Z,97530.69
2023-05-08T08:04:27.121Z,97518.06
2023-05-08T08:06:53.709Z,97524.09
2023-05-08T08:09:20.243Z,97558.34
2023-05-08T08:11:46.627Z,97525.13
2023-05-08T08:14:13.301Z,97533.41
2023-05-08T08:16:39.757Z,97533.75
2023-05-08T08:19:06.195Z,97531.22
2023-05-08T08:21:32.609Z,97515.00
2023-05-08T08:23:59.136Z,97519.91
2023-05-08T08:26:25.559Z,97544.78
2023-05-08T08:28:52.005Z,97509.44
2023-05-08T08:31:18.569Z,97535.47
2023-05-08T08:33:45.426Z,97508.13
2023-05-08T08:36:14.404Z,97524.16
2023-05-08T08:38:40.946Z,97509.03
2023-05-08T08:41:07.423Z,97536.03
2023-05-08T08:43:34.111Z,97518.50
2023-05-08T08:46:04.203Z,97523.47
2023-05-08T08:48:30.726Z,97513.06
2023-05-08T08:50:58.928Z,97512.44
2023-05-08T08:53:30.091Z,97554.47
2023-05-08T08:55:56.600Z,97508.69
2023-05-08T08:58:33.942Z,97506.72
2023-05-08T09:01:00.949Z,97524.88
2023-05-08T09:03:27.511Z,97515.19
2023-05-08T09:05:54.124Z,97499.28
2023-05-08T09:08:20.737Z,97494.69
2023-05-08T09:10:47.226Z,97525.91
2023-05-08T09:13:13.900Z,97508.44
2023-05-08T09:15:40.387Z,97535.41
2023-05-08T09:18:06.886Z,97531.06
2023-05-08T09:20:33.421Z,97535.94
2023-05-08T09:23:00.769Z,97490.31
2023-05-08T09:25:27.255Z,97507.72
2023-05-08T09:27:53.733Z,97522.03
2023-05-08T09:30:20.145Z,97516.09
2023-05-08T09:32:46.642Z,97514.16
2023-05-08T09:35:13.730Z,97521.69
2023-05-08T09:37:41.205Z,97515.91
2023-05-08T09:40:14.330Z,97500.44
2023-05-08T09:42:40.816Z,97511.81
2023-05-08T09:45:07.475Z,97507.00
2023-05-08T09:47:34.138Z,97511.53
2023-05-08T09:50:04.668Z,97513.88
2023-05-08T09:52:31.577Z,97498.72
2023-05-08T09:55:01.785Z,97521.81
2023-05-08T09:57:28.436Z,97545.78
2023-05-08T10:00:01.724Z,97512.94
2023-05-08T10:02:28.442Z,97524.00
2023-05-08T10:04:55.144Z,97510.09
2023-05-08T10:07:28.642Z,97509.44
2023-05-08T10:10:01.761Z,97525.38
2023-05-08T10:12:28.452Z,97506.31
2023-05-08T10:14:55.258Z,97541.88
2023-05-08T10:17:48.312Z,97531.91
2023-05-08T10:20:15.192Z,97506.97
2023-05-08T10:22:42.276Z,97490.38
2023-05-08T10:25:11.263Z,97515.97
2023-05-08T10:27:41.681Z,97505.50
2023-05-08T10:30:08.359Z,97507.31
2023-05-08T10:32:38.322Z,97520.78
2023-05-08T10:35:05.027Z,97512.44
2023-05-08T10:37:31.589Z,97511.69
2023-05-08T10:39:58.158Z,97522.47
2023-05-08T10:42:24.634Z,97488.19
2023-05-08T10:44:51.028Z,97506.63
2023-05-08T10:47:19.623Z,97498.47
2023-05-08T10:49:57.074Z,97501.16
2023-05-08T10:52:23.605Z,97497.88
2023-05-08T10:54:59.010Z,97498.63
2023-05-08T10:57:25.537Z,97497.19
2023-05-08T10:59:52.042Z,97497.59
2023-05-08T11:02:20.890Z,97483.47
2023-05-08T11:04:47.477Z,97490.63
2023-05-08T11:07:14.088Z,97478.09
2023-05-08T11:09:40.567Z,97480.31
2023-05-08T11:12:25.940Z,97487.94
2023-05-08T11:14:53.846Z,97474.22
2023-05-08T11:17:24.010Z,97477.09
2023-05-08T11:19:54.796Z,97483.34
2023-05-08T11:22:22.437Z,97486.56
2023-05-08T11:24:55.911Z,97477.81
2023-05-08T11:27:31.621Z,97474.22
2023-05-08T11:30:16.981Z,97468.78
2023-05-08T11:33:15.846Z,97475.84
2023-05-08T11:35:42.381Z,97465.53
2023-05-08T11:38:14.194Z,97470.38
2023-05-08T11:40:47.625Z,97466.19
2023-05-08T11:43:24.468Z,97471.41
2023-05-08T11:45:51.160Z,97464.84
2023-05-08T11:48:17.602Z,97459.13
2023-05-08T11:50:43.978Z,97461.63
2023-05-08T11:53:10.533Z,97448.38
2023-05-08T11:55:36.923Z,97475.84
2023-05-08T11:58:11.305Z,97460.78
2023-05-08T12:00:47.013Z,97481.34
2023-05-08T12:03:17.326Z,97469.25
2023-05-08T12:05:44.163Z,97457.16
2023-05-08T12:08:10.801Z,97462.28
2023-05-08T12:10:46.959Z,97451.78
2023-05-08T12:13:23.374Z,97482.81
2023-05-08T12:15:50.641Z,97483.38
2023-05-08T12:18:17.230Z,97464.91
2023-05-08T12:20:43.852Z,97458.28
2023-05-08T12:23:10.474Z,97461.47
2023-05-08T12:25:37.556Z,97477.56
2023-05-08T12:28:04.006Z,97456.25
2023-05-08T12:30:30.484Z,97447.59
2023-05-08T12:32:57.075Z,97445.75
2023-05-08T12:35:23.607Z,97461.72
2023-05-08T12:37:50.712Z,97483.97
2023-05-08T12:40:33.279Z,97461.75
2023-05-08T12:43:03.127Z,97458.75
2023-05-08T12:45:30.265Z,97474.47
2023-05-08T12:48:03.365Z,97472.22
2023-05-08T12:50:30.026Z,97459.88
2023-05-08T12:53:01.555Z,97480.88
2023-05-08T12:55:28.843Z,97452.25
2023-05-08T12:58:14.717Z,97450.53
2023-05-08T13:00:42.965Z,97463.19
2023-05-08T13:03:09.665Z,97472.75
2023-05-08T13:05:36.749Z,97451.78
2023-05-08T13:08:03.949Z,97456.81
2023-05-08T13:11:03.017Z,97437.53
2023-05-08T13:13:31.192Z,97445.19
2023-05-08T13:15:57.815Z,97443.88
2023-05-08T13:18:25.054Z,97462.66
2023-05-08T13:20:51.552Z,97453.66
2023-05-08T13:23:18.028Z,97453.84
2023-05-08T13:25:44.508Z,97451.78
2023-05-08T13:28:11.054Z,97466.50
2023-05-08T13:30:37.622Z,97442.91
2023-05-08T13:33:04.353Z,97447.78
2023-05-08T13:35:31.213Z,97440.13
2023-05-08T13:37:57.871Z,97441.09
2023-05-08T13:40:24.350Z,97416.81
2023-05-08T13:42:51.017Z,97406.94
2023-05-08T13:45:17.561Z,97439.31
2023-05-08T13:47:44.211Z,97455.69
2023-05-08T13:50:10.962Z,97428.84
2023-05-08T13:52:37.682Z,97403.88
2023-05-08T13:55:07.320Z,97429.00
2023-05-08T13:57:33.841Z,97421.81
2023-05-08T14:00:00.244Z,97437.28
2023-05-08T14:02:27.134Z,97428.81
2023-05-08T14:04:53.861Z,97422.06
2023-05-08T14:07:20.360Z,97464.06
2023-05-08T14:09:46.811Z,97426.06
2023-05-08T14:12:13.262Z,97443.75
2023-05-08T14:14:39.770Z,97423.06
2023-05-08T14:17:06.340Z,97430.81
2023-05-08T14:19:32.894Z,97439.56
2023-05-08T14:21:59.281Z,97429.16
2023-05-08T14:24:25.727Z,97431.56
2023-05-08T14:26:52.175Z,97418.91
2023-05-08T14:29:19.013Z,97413.94
2023-05-08T14:31:45.532Z,97407.34
2023-05-08T14:34:12.067Z,97437.72
2023-05-08T14:36:38.491Z,97430.44
2023-05-08T14:39:04.918Z,97398.38
2023-05-08T14:41:31.398Z,97423.84
2023-05-08T14:43:57.807Z,97435.38
2023-05-08T14:46:24.357Z,97426.84
2023-05-08T14:48:51.256Z,97423.38
2023-05-08T14:51:17.718Z,97414.06
2023-05-08T14:53:44.333Z,97427.53
2023-05-08T14:56:11.402Z,97438.97
2023-05-08T14:58:37.954Z,97416.06
2023-05-08T15:01:04.435Z,97405.00
2023-05-08T15:03:31.008Z,97419.47
2023-05-08T15:05:57.640Z,97425.06
2023-05-08T15:08:24.130Z,97423.91
2023-05-08T15:10:50.567Z,97404.56
2023-05-08T15:13:17.024Z,97416.72
2023-05-08T15:15:43.779Z,97414.00
2023-05-08T15:18:10.345Z,97423.78
2023-05-08T15:20:36.827Z,97414.44
2023-05-08T15:23:03.252Z,97420.53
2023-05-08T15:25:29.833Z,97416.97
2023-05-08T15:27:56.777Z,97400.59
2023-05-08T15:30:24.417Z,97427.47
2023-05-08T15:32:51.228Z,97416.84
2023-05-08T15:35:17.768Z,97419.72
2023-05-08T15:37:44.156Z,97420.84
2023-05-08T15:40:11.079Z,97390.22
2023-05-08T15:42:37.611Z,97402.50
2023-05-08T15:45:04.073Z,97419.16
2023-05-08T15:47:30.564Z,97412.06
2023-05-08T15:49:57.023Z,97419.47
2023-05-08T15:52:23.508Z,97405.78
2023-05-08T15:54:50.055Z,97396.53
2023-05-08T15:57:16.578Z,97406.72
2023-05-08T15:59:43.081Z,97410.41
2023-05-08T16:02:09.598Z,97405.63
2023-05-08T16:04:36.131Z,97410.69
2023-05-08T16:07:02.504Z,97400.31
2023-05-08T16:09:28.925Z,97418.72
2023-05-08T16:11:55.351Z,97410.19
2023-05-08T16:14:21.851Z,97404.38
2023-05-08T16:16:48.411Z,97407.13
2023-05-08T16:19:14.877Z,97377.84
2023-05-08T16:21:41.316Z,97397.84
2023-05-08T16:24:08.015Z,97398.03
2023-05-08T16:26:34.495Z,97391.16
2023-05-08T16:29:00.950Z,97404.97
2023-05-08T16:31:27.531Z,97395.72
2023-05-08T16:33:53.908Z,97406.56
2023-05-08T16:36:20.354Z,97401.66
2023-05-08T16:38:46.886Z,97404.19
2023-05-08T16:41:13.317Z,97380.84
2023-05-08T16:43:39.717Z,97400.25
2023-05-08T16:46:06.302Z,97375.75
2023-05-08T16:48:32.739Z,97385.69
2023-05-08T16:50:59.130Z,97385.38
2023-05-08T16:53:25.548Z,97385.25
2023-05-08T16:55:51.978Z,97392.94
2023-05-08T16:58:18.414Z,97400.97
2023-05-08T17:00:44.928Z,97395.50
2023-05-08T17:03:11.572Z,97396.00
2023-05-08T17:05:38.161Z,97405.09
2023-05-08T17:08:04.789Z,97412.47
2023-05-08T17:10:31.273Z,97397.06
2023-05-08T17:12:58.150Z,97398.97
2023-05-08T17:15:24.683Z,97410.69
2023-05-08T17:17:51.110Z,97391.50
2023-05-08T17:20:17.587Z,97411.84
2023-05-08T17:22:44.022Z,97406.00
2023-05-08T17:25:10.494Z,97408.22
2023-05-08T17:27:36.896Z,97421.41
2023-05-08T17:30:03.591Z,97426.47
2023-05-08T17:32:30.002Z,97417.34
2023-05-08T17:34:56.493Z,97428.72
2023-05-08T17:37:23.014Z,97433.31
2023-05-08T17:39:49.470Z,97419.91
2023-05-08T17:42:15.954Z,97405.47
2023-05-08T17:44:42.474Z,97427.56
2023-05-08T17:47:08.903Z,97453.31
2023-05-08T17:49:35.309Z,97424.34
2023-05-08T17:52:01.760Z,97422.13
2023-05-08T17:54:28.194Z,97437.47
2023-05-08T17:56:54.867Z,97428.97
2023-05-08T17:59:21.374Z,97422.72
2023-05-08T18:01:47.839Z,97443.34
2023-05-08T18:04:14.452Z,97411.97
2023-05-08T18:06:40.918Z,97442.84
2023-05-08T18:09:07.377Z,97444.72
2023-05-08T18:11:33.818Z,97485.78
2023-05-08T18:14:00.293Z,97435.63
2023-05-08T18:16:26.744Z,97486.28
2023-05-08T18:18:53.300Z,97442.59
2023-05-08T18:21:19.714Z,97440.22
2023-05-08T18:23:46.143Z,97464.06
2023-05-08T18:26:13.050Z,97459.28
2023-05-08T18:28:39.652Z,97465.16
2023-05-08T18:31:06.076Z,97448.81
2023-05-08T18:33:32.544Z,97439.59
2023-05-08T18:35:59.057Z,97465.88
2023-05-08T18:38:25.415Z,97460.63
2023-05-08T18:40:51.835Z,97461.25
2023-05-08T18:43:18.270Z,97487.91
2023-05-08T18:45:44.785Z,97469.28
2023-05-08T18:48:11.305Z,97462.53
2023-05-08T18:50:37.861Z,97472.56
2023-05-08T18:53:04.347Z,97461.16
2023-05-08T18:55:30.727Z,97480.19
2023-05-08T18:57:57.235Z,97480.19
2023-05-08T19:00:23.671Z,97480.16
2023-05-08T19:02:50.213Z,97497.91
2023-05-08T19:05:16.881Z,97471.00
2023-05-08T19:07:43.730Z,97521.53
2023-05-08T19:10:10.401Z,97501.75
2023-05-08T19:12:36.946Z,97498.97
2023-05-08T19:15:03.381Z,97490.53
2023-05-08T19:17:29.871Z,97477.28
2023-05-08T19:19:56.413Z,97483.91
2023-05-08T19:22:22.874Z,97506.50
2023-05-08T19:24:49.357Z,97499.59
2023-05-08T19:27:15.805Z,97489.53
2023-05-08T19:29:42.196Z,97453.78
2023-05-08T19:32:08.602Z,97502.16
2023-05-08T19:34:35.294Z,97493.25
2023-05-08T19:37:01.803Z,97472.47
2023-05-08T19:39:28.313Z,97500.56
2023-05-08T19:41:54.765Z,97487.63
2023-05-08T19:44:21.200Z,97490.72
2023-05-08T19:46:47.636Z,97504.38
2023-05-08T19:49:14.142Z,97477.44
2023-05-08T19:51:40.656Z,97500.38
2023-05-08T19:54:07.150Z,97490.78
2023-05-08T19:56:33.621Z,97474.88
2023-05-08T19:58:59.981Z,97485.47
2023-05-08T20:01:26.400Z,97493.13
2023-05-08T20:03:53.180Z,97468.72
2023-05-08T20:06:19.752Z,97523.66
2023-05-08T20:08:46.188Z,97530.38
2023-05-08T20:11:12.682Z,97489.94
2023-05-08T20:13:39.218Z,97499.13
2023-05-08T20:16:05.814Z,97512.41
2023-05-08T20:18:33.468Z,97520.31
2023-05-08T20:20:59.941Z,97515.03
2023-05-08T20:23:26.407Z,97530.16
2023-05-08T20:25:52.876Z,97517.53
2023-05-08T20:28:19.276Z,97503.38
2023-05-08T20:30:46.295Z,97489.03
2023-05-08T20:33:12.895Z,97513.84
2023-05-08T20:35:39.416Z,97483.03
2023-05-08T20:38:05.824Z,97488.59
2023-05-08T20:40:32.348Z,97507.09
2023-05-08T20:42:58.840Z,97481.41
2023-05-08T20:45:25.355Z,97497.69
2023-05-08T20:47:51.881Z,97462.41
2023-05-08T20:50:18.444Z,97488.84
2023-05-08T20:52:44.928Z,97515.81
2023-05-08T20:55:11.510Z,97479.47
2023-05-08T20:57:38.108Z,97511.66
2023-05-08T21:00:05.025Z,97514.31
2023-05-08T21:02:31.651Z,97499.72
2023-05-08T21:04:58.169Z,97480.34
2023-05-08T21:07:24.718Z,97497.13
2023-05-08T21:09:51.555Z,97494.03
2023-05-08T21:12:18.014Z,97492.97
2023-05-08T21:14:44.440Z,97485.47
2023-05-08T21:17:10.916Z,97487.41
2023-05-08T21:19:37.304Z,97489.31
2023-05-08T21:22:03.749Z,97479.94
2023-05-08T21:24:30.293Z,97474.78
2023-05-08T21:26:56.821Z,97462.72
2023-05-08T21:29:23.276Z,97474.13
2023-05-08T21:31:49.791Z,97455.84
2023-05-08T21:34:16.259Z,97454.50
2023-05-08T21:36:42.819Z,97469.66
2023-05-08T21:39:09.346Z,97461.88
2023-05-08T21:41:35.829Z,97439.59
2023-05-08T21:44:02.292Z,97466.03
2023-05-08T21:46:28.920Z,97471.13
2023-05-08T21:48:55.452Z,97464.69
2023-05-08T21:51:21.923Z,97444.75
2023-05-08T21:53:48.363Z,97478.75
2023-05-08T21:56:14.738Z,97467.72
2023-05-08T21:58:41.118Z,97459.59
2023-05-08T22:01:07.592Z,97460.47
2023-05-08T22:03:34.130Z,97475.91
2023-05-08T22:06:00.626Z,97466.66
2023-05-08T22:08:27.135Z,97481.53
2023-05-08T22:10:53.523Z,97463.47
2023-05-08T22:13:20.026Z,97470.59
2023-05-08T22:15:46.685Z,97470.03
2023-05-08T22:18:13.092Z,97459.28
2023-05-08T22:20:39.575Z,97436.84
2023-05-08T22:23:06.287Z,97463.25
2023-05-08T22:25:32.806Z,97447.88
2023-05-08T22:27:59.191Z,97456.56
2023-05-08T22:30:25.718Z,97453.84
2023-05-08T22:32:53.151Z,97446.28
2023-05-08T22:35:19.847Z,97441.41
2023-05-08T22:37:46.309Z,97454.34
2023-05-08T22:40:12.998Z,97452.19
2023-05-08T22:42:39.524Z,97432.22
2023-05-08T22:45:06.221Z,97450.81
2023-05-08T22:47:33.251Z,97434.16
2023-05-08T22:49:59.699Z,97420.56
2023-05-08T22:52:26.238Z,97444.13
2023-05-08T22:54:52.734Z,97440.31
2023-05-08T22:57:19.260Z,97426.06
2023-05-08T22:59:45.776Z,97428.97
2023-05-08T23:02:12.227Z,97440.56
2023-05-08T23:04:38.712Z,97413.28
2023-05-08T23:07:05.248Z,97426.28
2023-05-08T23:09:31.768Z,97407.09
2023-05-08T23:11:58.217Z,97445.75
2023-05-08T23:14:24.668Z,97433.97
2023-05-08T23:16:51.204Z,97412.88
2023-05-08T23:19:17.734Z,97429.47
2023-05-08T23:21:44.265Z,97417.06
2023-05-08T23:24:10.769Z,97424.56
2023-05-08T23:26:37.259Z,97415.66
2023-05-08T23:29:03.739Z,97422.53
2023-05-08T23:31:30.201Z,97413.16
2023-05-08T23:33:56.626Z,97402.09
2023-05-08T23:36:23.181Z,97430.56
2023-05-08T23:38:49.600Z,97415.97
2023-05-08T23:41:16.274Z,97434.53
2023-05-08T23:43:42.688Z,97439.84
2023-05-08T23:46:09.119Z,97428.16
2023-05-08T23:48:35.570Z,97408.75
2023-05-08T23:51:02.087Z,97415.19
2023-05-08T23:53:28.861Z,97412.47
2023-05-08T23:55:55.338Z,97388.97
2023-05-08T23:58:21.851Z,97430.78
